• Join FlightAware (Why Join?)
  • Login
  • US Flag 
05:58AM EDT


 

Airport Tracker/Info


-or-


 

Live Flight TrackerFlight Track Log ✈ SKW6306 ✈ 19-Jun-2013 ✈ KDEN - CYXE

Flight Track Log - Related Links

Times and Time Zones

All times are in EDT time to prevent confusion due to time zone crossing. See the SKW6306 flight status page for this flight to view local times or setup timezone preferences in your user account.

Time Position Orientation Groundspeed Altitude Reporting Facility
EDT Latitude Longitude Course Direction KTS MPH feet Rate Location/Type
03:55PM 39.8431 -104.7569 301° West 181 208 6,400  Level Denver Center
03:56PM 39.8772 -104.8319 301° West 244 281 7,400 1,260 Climbing Denver Center
03:57PM 39.9306 -104.9186 309° West 289 333 9,000 1,320 Climbing Denver Center
03:58PM 40.0108 -104.9481 344° North 308 354 10,200 1,320 Climbing Denver Center
03:59PM 40.0983 -104.9289 10° North 322 371 11,800 1,680 Climbing Denver Center
04:00PM 40.1744 -104.8511 38° Northeast 324 373 13,700 1,500 Climbing Denver Center
04:01PM 40.2606 -104.8186 16° North 326 375 15,000 1,200 Climbing Denver Center
04:02PM 40.3553 -104.8258 357° North 338 389 16,200 960 Climbing Denver Center
04:03PM 40.4644 -104.8306 358° North 362 417 17,100 660 Climbing Denver Center
04:04PM 40.5700 -104.8392 356° North 382 440 17,600 480 Climbing Denver Center
04:05PM 40.6928 -104.8447 358° North 408 470 18,200 480 Climbing Denver Center
04:06PM 40.8053 -104.8606 354° North 394 453 18,700 540 Climbing Denver Center
04:07PM 40.9139 -104.9122 340° North 409 471 19,400 720 Climbing Denver Center
04:08PM 41.0219 -104.9644 340° North 407 468 20,200 600 Climbing Denver Center
04:09PM 41.1294 -104.9853 352° North 409 471 20,700 540 Climbing Denver Center
04:10PM 41.2603 -104.9831 North 424 488 21,400 480 Climbing Denver Center
04:11PM 41.3722 -104.9794 North 419 482 21,800 480 Climbing Denver Center
04:12PM 41.5022 -104.9947 355° North 421 484 22,500 720 Climbing Denver Center
04:13PM 41.6111 -105.0228 349° North 415 478 23,300 660 Climbing Denver Center
04:14PM 41.7389 -105.0592 348° North 421 484 23,900 540 Climbing Denver Center
04:15PM 41.8483 -105.0872 349° North 418 481 24,500 600 Climbing Denver Center
04:16PM 41.9772 -105.1203 349° North 419 482 25,200 540 Climbing Denver Center
04:18PM 42.0903 -105.1519 348° North 430 495 25,700 480 Climbing Denver Center
04:19PM 42.2042 -105.1822 349° North 434 499 26,200 480 Climbing Denver Center
04:20PM 42.3594 -105.2231 349° North 442 509 26,800 480 Climbing Denver Center
04:21PM 42.4928 -105.2589 349° North 438 504 27,400 480 Climbing Denver Center
04:22PM 42.6850 -105.3119 349° North 438 504 28,200 480 Climbing Salt Lake Center
04:23PM 42.8014 -105.3431 349° North 441 507 28,700 480 Climbing Salt Lake Center
04:25PM 42.9378 -105.3811 348° North 444 511 29,300 480 Climbing Salt Lake Center
04:26PM 43.0536 -105.4125 349° North 444 511 29,800 480 Climbing Salt Lake Center
04:27PM 43.1692 -105.4444 349° North 442 509 30,300 480 Climbing Salt Lake Center
04:28PM 43.3036 -105.4806 349° North 441 507 30,800 480 Climbing Salt Lake Center
04:29PM 43.4169 -105.5119 349° North 436 502 31,300 420 Climbing Salt Lake Center
04:30PM 43.5494 -105.5486 349° North 434 499 31,700 300 Climbing Salt Lake Center
04:31PM 43.6631 -105.5800 349° North 434 499 32,000 120 Climbing Salt Lake Center
04:32PM 43.7981 -105.6206 348° North 439 505 32,000  Level Salt Lake Center
04:33PM 43.9181 -105.6544 349° North 449 517 32,000  Level Salt Lake Center
04:34PM 44.0389 -105.6872 349° North 456 525 32,000  Level Salt Lake Center
04:35PM 44.1783 -105.7278 348° North 458 527 32,000  Level Salt Lake Center
04:36PM 44.2983 -105.7625 348° North 459 528 32,000  Level Salt Lake Center
04:37PM 44.4383 -105.8006 349° North 459 528 32,000  Level Salt Lake Center
04:38PM 44.5581 -105.8361 348° North 459 528 32,000  Level Salt Lake Center
04:39PM 44.6986 -105.8764 348° North 461 531 32,000  Level Salt Lake Center
04:40PM 44.8186 -105.9108 348° North 461 531 32,000  Level Salt Lake Center
04:41PM 44.9403 -105.9472 348° North 464 534 32,000  Level Salt Lake Center
04:42PM 45.0808 -105.9875 349° North 463 533 32,000  Level Salt Lake Center
04:43PM 45.2017 -106.0242 348° North 463 533 32,000  Level Salt Lake Center
04:44PM 45.3350 -106.0642 348° North 465 535 32,000  Level Salt Lake Center
04:45PM 45.4617 -106.1006 349° North 464 534 32,000  Level Salt Lake Center
04:46PM 45.5875 -106.1394 348° North 464 534 32,000  Level Salt Lake Center
04:47PM 45.7142 -106.1778 348° North 464 534 32,000  Level Salt Lake Center
04:48PM 45.8397 -106.2133 349° North 463 533 32,000  Level Salt Lake Center
04:49PM 45.9900 -106.2581 348° North 461 531 32,000  Level Salt Lake Center
04:50PM 46.1169 -106.2975 348° North 462 532 32,000  Level Salt Lake Center
04:51PM 46.2442 -106.3369 348° North 464 534 32,000  Level Salt Lake Center
04:52PM 46.3711 -106.3758 348° North 465 535 32,000  Level Salt Lake Center
04:53PM 46.4981 -106.4139 348° North 466 536 32,000  Level Salt Lake Center
04:54PM 46.6264 -106.4558 347° North 467 537 32,000  Level Salt Lake Center
04:55PM 46.7547 -106.4953 348° North 469 540 32,000  Level Salt Lake Center
04:56PM 46.9086 -106.5444 348° North 470 541 32,000  Level Salt Lake Center
04:57PM 47.0367 -106.5858 348° North 470 541 32,000 -60 Level Salt Lake Center
04:58PM 47.1653 -106.6264 348° North 471 542 31,900  Descending Salt Lake Center
05:00PM 47.2939 -106.6681 348° North 472 543 32,000  Climbing Salt Lake Center
05:01PM 47.4236 -106.7114 347° North 475 547 32,000  Level Salt Lake Center
05:02PM 47.5506 -106.7508 348° North 472 543 32,000  Level Salt Lake Center
05:03PM 47.6800 -106.7931 348° North 473 544 32,000  Level Salt Lake Center
05:04PM 47.8350 -106.8439 348° North 474 545 32,000  Level Salt Lake Center
05:06PM 48.0667 -106.9333 346° North 470 541 32,000  Level Winnipeg Center
05:07PM 48.2000 -106.9833 346° North 470 541 32,000  Level Winnipeg Center
05:08PM 48.3167 -107.0333 344° North 470 541 32,000  Level Winnipeg Center
05:09PM 48.4500 -107.0667 351° North 470 541 32,000  Level Winnipeg Center
05:10PM 48.5833 -107.1167 346° North 450 518 32,000  Level Winnipeg Center
05:11PM 48.7000 -107.1667 344° North 480 552 32,000  Level Winnipeg Center
05:12PM 48.8500 -107.2333 344° North 470 541 32,000  Level Winnipeg Center
05:13PM 48.9667 -107.2500 355° North 470 541 32,000  Level Winnipeg Center
05:14PM 49.0833 -107.3000 344° North 470 541 32,000  Level Winnipeg Center
05:15PM 49.2167 -107.3333 351° North 470 541 32,000  Level Winnipeg Center
05:16PM 49.3333 -107.3833 344° North 470 541 32,000  Level Winnipeg Center
05:17PM 49.4833 -107.4500 344° North 470 541 32,000  Level Winnipeg Center
05:18PM 49.6000 -107.4667 355° North 470 541 32,000  Level Winnipeg Center
05:19PM 49.7000 -107.5167 342° North 460 529 32,000  Level Winnipeg Center
05:20PM 49.8500 -107.5833 344° North 470 541 32,000  Level Winnipeg Center
05:21PM 49.9667 -107.6000 355° North 470 541 32,000  Level Winnipeg Center
05:22PM 50.1000 -107.6667 342° North 460 529 32,000  Level Winnipeg Center
05:23PM 50.2333 -107.6833 355° North 460 529 32,000  Level Winnipeg Center
05:24PM 50.3500 -107.7167 350° North 470 541 32,000  Level Winnipeg Center
05:25PM 50.4833 -107.7000 North 470 541 32,000 -180 Level Winnipeg Center
05:26PM 50.6167 -107.6667 North 470 541 31,700 -1,140 Descending Winnipeg Center
05:27PM 50.7333 -107.6500 North 470 541 29,800 -2,280 Descending Winnipeg Center
05:28PM 50.8667 -107.6000 13° North 460 529 27,200 -2,520 Descending Winnipeg Center
05:29PM 50.9667 -107.5500 17° North 430 495 24,800 -2,580 Descending Winnipeg Center
05:30PM 51.1000 -107.4833 17° North 410 472 22,100 -2,520 Descending Winnipeg Center
05:31PM 51.2000 -107.4333 17° North 400 460 19,800 -2,100 Descending Winnipeg Center
05:32PM 51.2833 -107.4000 14° North 380 437 17,900 -1,860 Descending Winnipeg Center
05:33PM 51.4000 -107.3500 15° North 370 426 16,100 -1,620 Descending Winnipeg Center
05:34PM 51.4833 -107.3167 14° North 350 403 14,700 -1,500 Descending Winnipeg Center
05:35PM 51.5833 -107.2500 22° Northeast 340 391 13,100 -1,560 Descending Winnipeg Center
05:36PM 51.6500 -107.2167 17° North 340 391 11,600 -1,560 Descending Winnipeg Center
05:37PM 51.7500 -107.1833 12° North 320 368 10,000 -1,560 Descending Winnipeg Center
05:38PM 51.8333 -107.1500 14° North 290 334 8,500 -1,620 Descending Winnipeg Center
05:39PM 51.9000 -107.1000 25° Northeast 270 311 6,800 -1,260 Descending Winnipeg Center
05:40PM 51.9667 -107.0667 17° North 260 299 6,000 -600 Descending Winnipeg Center
05:41PM 52.0333 -107.0500 North 260 299 5,600 -780 Descending Winnipeg Center
05:42PM 52.1000 -107.0167 17° North 230 265 4,500 -840 Descending Winnipeg Center
05:43PM 52.1500 -106.9667 32° Northeast 220 253 4,000 -540 Descending Winnipeg Center